Thunder radar more information blitzortung!


Radar de pluja more information rain snow radar


Visita la nostra xarxa de llocs de meteo:

Template documentation
and downloads

And another site



Wind From: 11-12-2017 11:00 Until: 14:59 warning for: Wind Level: Yellow info button

Pagina Historial Weather Underground text

Diari Resum Setembre 22, 2017 Unitats:  Mètric    Imperial   Tant
« Previous Dia
SegĂźent Dia »
Diari Setmana Mensual Anual Personalitzada
  Maxima: Minima: Media:
Temperatura: 24.1 °C 15.8 °C 19.2 °C
Punt de rosada: 17.8 °C 13.7 °C 15 °C
Humitat: 92 % 62 % 77 %
Wind Speed: 11.1 km/h 0.0 km/h 3.3 km/h
RĂ fegues de vent: 11.1 km/h - -
Vent:- - SE
Pression baro: 1022.9 hPa 1018.8 hPa -
Precipitacions: 4.1 mm    
Historical Graphs
 
 
Dades de taula per Setembre 22, 2017
Temps Temperatura Punt de rosada Pression baro Vent Wind Speed RĂ fegues de vent Humitat Rainfall Rate (Hourly)
00:00 19.0 °C 15.7 °C 1018.8 hPa Calm     81 % 0.0 mm
00:05 19.0 °C 15.7 °C 1018.8 hPa Calm     81 % 0.0 mm
00:10 18.9 °C 15.8 °C 1018.8 hPa Calm     82 % 0.0 mm
00:20 16.6 °C 14.8 °C 1019.9 hPa Calm     89 % 0.0 mm
00:30 16.6 °C 14.8 °C 1019.9 hPa Calm     89 % 0.0 mm
00:40 16.5 °C 14.7 °C 1019.9 hPa Calm     89 % 0.0 mm
00:50 16.3 °C 14.5 °C 1019.9 hPa SE 1.6 km/h 3.2 km/h 89 % 0.0 mm
01:00 16.1 °C 14.3 °C 1019.9 hPa Calm   3.2 km/h 89 % 0.0 mm
01:10 16.2 °C 14.4 °C 1019.9 hPa SW 1.6 km/h 3.2 km/h 89 % 0.0 mm
01:20 16.2 °C 14.6 °C 1019.9 hPa WSW 3.2 km/h 3.2 km/h 90 % 0.0 mm
01:30 16.1 °C 14.4 °C 1019.9 hPa Calm   3.2 km/h 90 % 0.0 mm
01:40 16.0 °C 14.2 °C 1019.9 hPa NNW 1.6 km/h 1.6 km/h 89 % 0.0 mm
01:50 15.9 °C 14.1 °C 1019.9 hPa Calm   3.2 km/h 89 % 0.0 mm
02:00 15.9 °C 14.1 °C 1019.9 hPa WSW 3.2 km/h 4.8 km/h 89 % 0.0 mm
02:10 15.8 °C 14.2 °C 1019.9 hPa SW 1.6 km/h 4.8 km/h 90 % 0.0 mm
02:20 16.0 °C 14.3 °C 1019.9 hPa SW 1.6 km/h 3.2 km/h 90 % 0.0 mm
02:30 16.0 °C 14.6 °C 1019.9 hPa Calm   1.6 km/h 91 % 0.0 mm
02:40 16.1 °C 14.6 °C 1019.9 hPa WSW 1.6 km/h 3.2 km/h 91 % 0.0 mm
02:50 16.2 °C 14.7 °C 1019.9 hPa WSW 1.6 km/h 3.2 km/h 91 % 0.0 mm
03:00 16.2 °C 14.7 °C 1019.9 hPa Calm     91 % 0.0 mm
03:10 16.3 °C 15.0 °C 1019.9 hPa Calm     92 % 0.0 mm
03:20 16.4 °C 15.1 °C 1019.9 hPa Calm   1.6 km/h 92 % 0.0 mm
03:30 16.6 °C 15.3 °C 1019.9 hPa Calm   1.6 km/h 92 % 0.0 mm
03:40 16.8 °C 15.5 °C 1020.9 hPa Calm     92 % 0.0 mm
03:50 17.3 °C 16.0 °C 1020.9 hPa Calm     92 % 0.0 mm
04:00 17.1 °C 15.6 °C 1020.9 hPa NNW 1.6 km/h 3.2 km/h 91 % 0.0 mm
04:10 17.2 °C 15.7 °C 1020.9 hPa Calm     91 % 0.0 mm
04:20 17.8 °C 16.3 °C 1020.9 hPa WNW 1.6 km/h   91 % 0.0 mm
04:30 18.3 °C 16.6 °C 1020.9 hPa Calm   1.6 km/h 90 % 0.0 mm
04:40 18.9 °C 16.9 °C 1020.9 hPa NE 3.2 km/h 4.8 km/h 88 % 0.0 mm
04:50 19.0 °C 16.4 °C 1020.9 hPa NE 3.2 km/h 4.8 km/h 85 % 0.0 mm
05:00 19.7 °C 16.9 °C 1021.9 hPa NE 1.6 km/h 3.2 km/h 84 % 0.0 mm
05:10 19.9 °C 16.7 °C 1021.9 hPa NE 1.6 km/h 3.2 km/h 82 % 0.0 mm
05:20 19.9 °C 16.7 °C 1021.9 hPa NE 3.2 km/h 4.8 km/h 82 % 0.0 mm
05:30 20.0 °C 16.4 °C 1020.9 hPa NE 3.2 km/h 4.8 km/h 80 % 0.0 mm
05:40 20.0 °C 16.4 °C 1021.9 hPa NE 3.2 km/h 4.8 km/h 80 % 0.0 mm
05:50 20.2 °C 16.6 °C 1021.9 hPa NE 4.8 km/h 4.8 km/h 80 % 0.0 mm
06:00 21.0 °C 17.0 °C 1021.9 hPa NNE 3.2 km/h 4.8 km/h 78 % 0.0 mm
09:40 20.8 °C 15.8 °C 1022.9 hPa SW 3.2 km/h 4.8 km/h 73 % 0.0 mm
09:50 20.1 °C 15.3 °C 1022.9 hPa SW 4.8 km/h 4.8 km/h 74 % 0.0 mm
10:00 19.3 °C 14.9 °C 1022.9 hPa WSW 4.8 km/h 8.0 km/h 76 % 0.0 mm
10:10 18.6 °C 14.7 °C 1022.9 hPa WSW 1.6 km/h 4.8 km/h 78 % 0.0 mm
10:20 18.3 °C 14.6 °C 1022.9 hPa West 1.6 km/h 3.2 km/h 79 % 0.0 mm
10:30 18.3 °C 14.6 °C 1022.9 hPa WNW 3.2 km/h 4.8 km/h 79 % 0.0 mm
11:04 21.5 °C 17.1 °C 1021.9 hPa NE 1.9 km/h 1.9 km/h 76 % 0.0 mm
11:09 22.0 °C 17.6 °C 1021.9 hPa ESE 5.6 km/h 5.6 km/h 76 % 0.0 mm
11:14 22.2 °C 17.3 °C 1021.9 hPa NE 7.9 km/h 7.9 km/h 74 % 0.0 mm
11:19 22.0 °C 17.2 °C 1021.9 hPa East 3.9 km/h 3.9 km/h 74 % 0.0 mm
11:24 22.4 °C 17.6 °C 1021.9 hPa NNE 4.7 km/h   74 % 0.0 mm
11:29 22.4 °C 17.3 °C 1021.9 hPa NNE 9.3 km/h 9.3 km/h 73 % 0.0 mm
11:34 22.7 °C 17.6 °C 1021.9 hPa East 3.7 km/h 4.2 km/h 73 % 0.0 mm
11:39 23.2 °C 17.7 °C 1021.9 hPa ENE 3.9 km/h 3.9 km/h 71 % 0.0 mm
11:44 23.4 °C 17.8 °C 1021.9 hPa SE 3.9 km/h 3.9 km/h 71 % 0.0 mm
11:49 23.3 °C 17.5 °C 1021.9 hPa ENE 5.6 km/h 5.6 km/h 70 % 0.0 mm
11:54 23.2 °C 17.2 °C 1021.9 hPa ESE 5.0 km/h 5.3 km/h 69 % 0.0 mm
11:59 22.8 °C 16.6 °C 1021.9 hPa ESE 5.6 km/h 5.6 km/h 68 % 0.0 mm
12:04 22.6 °C 16.6 °C 1021.9 hPa ENE 5.6 km/h 5.6 km/h 69 % 0.0 mm
12:09 22.6 °C 16.4 °C 1021.9 hPa SE 5.6 km/h 5.6 km/h 68 % 0.0 mm
12:14 23.1 °C 16.6 °C 1021.9 hPa SSE 5.6 km/h 5.6 km/h 67 % 0.0 mm
12:19 24.1 °C 17.6 °C 1021.9 hPa WSW 2.3 km/h 3.5 km/h 67 % 0.0 mm
12:24 24.0 °C 17.0 °C 1021.9 hPa East 7.4 km/h 7.4 km/h 65 % 0.0 mm
12:25 24.0 °C 17.0 °C 1021.9 hPa ENE 7.4 km/h 7.4 km/h 65 % 0.0 mm
12:30 23.7 °C 16.9 °C 1021.9 hPa South 3.7 km/h 3.7 km/h 66 % 0.0 mm
12:35 23.9 °C 17.2 °C 1021.9 hPa SSE 3.7 km/h 3.7 km/h 66 % 0.0 mm
12:40 23.7 °C 16.7 °C 1021.9 hPa South 3.9 km/h 3.9 km/h 65 % 0.0 mm
12:45 23.3 °C 16.3 °C 1021.9 hPa ESE 3.9 km/h 3.9 km/h 65 % 0.0 mm
12:50 23.4 °C 16.4 °C 1021.9 hPa SSE 7.4 km/h 7.4 km/h 65 % 0.0 mm
12:55 23.4 °C 16.2 °C 1021.9 hPa SSE 7.4 km/h 7.4 km/h 64 % 0.0 mm
13:00 23.3 °C 16.3 °C 1021.9 hPa NE 3.7 km/h 3.7 km/h 65 % 0.0 mm
13:05 23.3 °C 16.1 °C 1021.9 hPa ESE 5.6 km/h 5.6 km/h 64 % 0.0 mm
13:10 23.5 °C 16.6 °C 1021.9 hPa SW 3.7 km/h 3.7 km/h 65 % 0.0 mm
13:15 23.8 °C 16.6 °C 1021.9 hPa East 3.7 km/h 3.7 km/h 64 % 0.0 mm
13:20 23.3 °C 16.1 °C 1021.9 hPa SW 3.7 km/h 3.7 km/h 64 % 0.0 mm
13:25 23.3 °C 16.1 °C 1021.9 hPa SE 4.2 km/h   64 % 0.0 mm
13:30 23.1 °C 15.9 °C 1021.9 hPa SSE 7.4 km/h 7.4 km/h 64 % 0.0 mm
13:35 23.2 °C 16.3 °C 1021.9 hPa South 6.1 km/h 6.1 km/h 65 % 0.0 mm
13:40 23.3 °C 16.3 °C 1021.9 hPa WSW 3.5 km/h 3.5 km/h 65 % 0.0 mm
13:45 23.2 °C 16.0 °C 1021.9 hPa WSW 5.6 km/h 5.6 km/h 64 % 0.0 mm
13:50 23.5 °C 16.6 °C 1021.9 hPa SSE 7.4 km/h 7.4 km/h 65 % 0.0 mm
13:55 23.6 °C 16.6 °C 1021.9 hPa SW 3.7 km/h 3.7 km/h 65 % 0.0 mm
14:00 23.6 °C 16.4 °C 1021.9 hPa SE 5.6 km/h 5.6 km/h 64 % 0.0 mm
14:05 23.3 °C 15.6 °C 1021.9 hPa South 7.4 km/h 7.4 km/h 62 % 0.0 mm
14:10 23.3 °C 16.1 °C 1021.9 hPa SW 5.6 km/h 5.6 km/h 64 % 0.0 mm
14:15 23.3 °C 16.1 °C 1021.9 hPa WSW 1.9 km/h 1.9 km/h 64 % 0.0 mm
14:20 23.1 °C 16.2 °C 1021.9 hPa SW 3.7 km/h 3.7 km/h 65 % 0.0 mm
14:25 23.0 °C 16.1 °C 1021.9 hPa SW 7.6 km/h 7.6 km/h 65 % 0.0 mm
15:42 18.1 °C 14.6 °C 1022.9 hPa NW 7.6 km/h 7.6 km/h 80 % 0.0 mm
15:47 18.3 °C 14.8 °C 1022.9 hPa ENE 3.9 km/h 3.9 km/h 80 % 0.0 mm
15:52 18.2 °C 14.7 °C 1022.9 hPa NE 5.6 km/h 5.6 km/h 80 % 4.1 mm
15:57 18.4 °C 14.9 °C 1022.9 hPa NNW 5.6 km/h 5.6 km/h 80 % 4.1 mm
16:02 18.3 °C 14.8 °C 1022.9 hPa NNE 5.6 km/h 5.6 km/h 80 % 4.1 mm
16:07 18.4 °C 14.9 °C 1022.9 hPa NE 3.2 km/h 3.2 km/h 80 % 4.1 mm
16:12 18.3 °C 14.8 °C 1022.9 hPa NE 5.6 km/h 5.6 km/h 80 % 4.1 mm
16:17 18.5 °C 15.2 °C 1022.9 hPa NE 1.9 km/h   81 % 4.1 mm
16:22 18.7 °C 15.2 °C 1021.9 hPa NE 2.6 km/h   80 % 4.1 mm
16:27 18.8 °C 15.1 °C 1021.9 hPa NNE 11.1 km/h 11.1 km/h 79 % 4.1 mm
16:32 18.9 °C 15.2 °C 1021.9 hPa ENE 7.4 km/h 7.4 km/h 79 % 4.1 mm
16:37 18.7 °C 14.8 °C 1021.9 hPa ENE 7.4 km/h 7.4 km/h 78 % 4.1 mm
16:42 18.5 °C 14.6 °C 1021.9 hPa NNE 9.3 km/h 9.3 km/h 78 % 4.1 mm
16:47 18.5 °C 14.4 °C 1021.9 hPa NE 9.3 km/h 9.3 km/h 77 % 4.1 mm
16:52 18.5 °C 14.4 °C 1021.9 hPa NNE 11.1 km/h 11.1 km/h 77 % 0.0 mm
16:57 18.6 °C 14.5 °C 1021.9 hPa NNE 9.3 km/h 9.3 km/h 77 % 0.0 mm
17:02 18.7 °C 14.6 °C 1021.9 hPa ENE 6.1 km/h 6.1 km/h 77 % 0.0 mm
17:07 18.7 °C 14.6 °C 1021.9 hPa NE 7.4 km/h 7.4 km/h 77 % 0.0 mm
17:12 18.7 °C 14.4 °C 1021.9 hPa ENE 8.7 km/h 8.7 km/h 76 % 0.0 mm
17:17 18.9 °C 14.6 °C 1021.9 hPa NE 7.4 km/h 7.4 km/h 76 % 0.0 mm
17:22 18.9 °C 14.6 °C 1021.9 hPa ENE 7.4 km/h 7.4 km/h 76 % 0.0 mm
17:27 19.0 °C 14.3 °C 1021.9 hPa NE 5.6 km/h 5.6 km/h 74 % 0.0 mm
17:32 19.1 °C 14.3 °C 1021.9 hPa Calm     74 % 0.0 mm
17:37 19.1 °C 14.2 °C 1021.9 hPa ENE 5.6 km/h 5.6 km/h 73 % 0.0 mm
17:38 19.1 °C 14.2 °C 1021.9 hPa ENE 5.6 km/h 5.6 km/h 73 % 0.0 mm
17:43 19.3 °C 14.3 °C 1021.9 hPa ENE 1.9 km/h   73 % 0.0 mm
17:48 19.4 °C 14.7 °C 1021.9 hPa NE 2.3 km/h   74 % 0.0 mm
17:53 19.4 °C 14.7 °C 1021.9 hPa North 1.9 km/h   74 % 0.0 mm
17:58 19.6 °C 14.8 °C 1021.9 hPa North 1.9 km/h   74 % 0.0 mm
18:03 19.3 °C 14.3 °C 1021.9 hPa NNE 3.7 km/h 3.9 km/h 73 % 0.0 mm
18:08 19.2 °C 14.2 °C 1021.9 hPa NE 2.6 km/h 2.6 km/h 73 % 0.0 mm
18:13 19.1 °C 13.9 °C 1021.9 hPa ENE 1.9 km/h   72 % 0.0 mm
18:18 19.1 °C 13.9 °C 1021.9 hPa ENE 1.9 km/h   72 % 0.0 mm
18:23 19.1 °C 14.2 °C 1021.9 hPa ENE 2.3 km/h 2.3 km/h 73 % 0.0 mm
18:28 19.2 °C 14.2 °C 1021.9 hPa Calm     73 % 0.0 mm
18:33 19.1 °C 13.9 °C 1021.9 hPa Calm     72 % 0.0 mm
18:38 19.1 °C 13.9 °C 1021.9 hPa ENE 2.3 km/h 2.3 km/h 72 % 0.0 mm
18:43 19.1 °C 13.9 °C 1021.9 hPa ENE 2.6 km/h 2.6 km/h 72 % 0.0 mm
18:48 19.1 °C 14.2 °C 1021.9 hPa Calm     73 % 0.0 mm
18:53 19.1 °C 14.2 °C 1021.9 hPa Calm     73 % 0.0 mm
18:58 19.1 °C 14.2 °C 1021.9 hPa Calm     73 % 0.0 mm
19:03 19.1 °C 14.3 °C 1021.9 hPa Calm     74 % 0.0 mm
19:08 19.0 °C 14.3 °C 1021.9 hPa ENE 1.9 km/h 1.9 km/h 74 % 0.0 mm
19:13 18.9 °C 14.6 °C 1021.9 hPa ENE 1.9 km/h   76 % 0.0 mm
19:18 18.8 °C 14.5 °C 1021.9 hPa ENE 2.3 km/h   76 % 0.0 mm
19:23 18.8 °C 14.5 °C 1021.9 hPa ENE 1.9 km/h   76 % 0.0 mm
19:28 18.7 °C 14.4 °C 1021.9 hPa Calm     76 % 0.0 mm
19:33 18.6 °C 14.3 °C 1021.9 hPa Calm     76 % 0.0 mm
19:38 18.5 °C 14.2 °C 1021.9 hPa Calm     76 % 0.0 mm
19:43 18.5 °C 14.2 °C 1021.9 hPa ENE 2.6 km/h 2.6 km/h 76 % 0.0 mm
19:48 18.4 °C 14.1 °C 1021.9 hPa ENE 3.7 km/h 3.7 km/h 76 % 0.0 mm
19:53 18.4 °C 14.3 °C 1021.9 hPa ENE 1.9 km/h   77 % 0.0 mm
19:58 18.4 °C 14.3 °C 1021.9 hPa ENE 1.9 km/h   77 % 0.0 mm
20:03 18.3 °C 14.2 °C 1021.9 hPa ENE 2.3 km/h   77 % 0.0 mm
20:08 18.2 °C 14.1 °C 1021.9 hPa NE 3.7 km/h 3.7 km/h 77 % 0.0 mm
20:13 18.2 °C 14.1 °C 1021.9 hPa NNE 3.7 km/h 3.7 km/h 77 % 0.0 mm
20:18 18.1 °C 14.0 °C 1021.9 hPa NNE 1.9 km/h   77 % 0.0 mm
20:23 17.9 °C 14.0 °C 1021.9 hPa NNE 5.6 km/h 5.6 km/h 78 % 0.0 mm
20:28 17.8 °C 13.9 °C 1021.9 hPa NNE 3.7 km/h 3.7 km/h 78 % 0.0 mm
20:33 17.7 °C 13.8 °C 1020.9 hPa NNE 5.6 km/h 5.6 km/h 78 % 0.0 mm
20:38 17.7 °C 13.8 °C 1020.9 hPa NNE 3.7 km/h 3.7 km/h 78 % 0.0 mm
20:43 17.6 °C 13.7 °C 1020.9 hPa Calm     78 % 0.0 mm
20:48 17.6 °C 13.9 °C 1021.9 hPa NNE 1.9 km/h   79 % 0.0 mm
20:53 17.6 °C 13.9 °C 1021.9 hPa North 3.7 km/h 3.7 km/h 79 % 0.0 mm
20:58 17.5 °C 13.8 °C 1021.9 hPa NE 5.6 km/h 5.6 km/h 79 % 0.0 mm
21:03 17.5 °C 13.8 °C 1021.9 hPa NNE 3.7 km/h 3.7 km/h 79 % 0.0 mm
21:08 17.5 °C 13.8 °C 1021.9 hPa NNE 4.7 km/h 4.7 km/h 79 % 0.0 mm
21:13 17.5 °C 13.8 °C 1021.9 hPa NNE 3.9 km/h 3.9 km/h 79 % 0.0 mm
21:18 17.5 °C 13.8 °C 1021.9 hPa NNE 5.6 km/h 5.6 km/h 79 % 0.0 mm
21:23 17.5 °C 13.8 °C 1021.9 hPa NNW 5.6 km/h 5.6 km/h 79 % 0.0 mm
21:28 17.5 °C 13.8 °C 1021.9 hPa North 3.7 km/h 3.7 km/h 79 % 0.0 mm
21:33 17.5 °C 13.8 °C 1021.9 hPa NNW 3.7 km/h   79 % 0.0 mm
21:38 17.5 °C 13.8 °C 1021.9 hPa NNW 3.7 km/h   79 % 0.0 mm
21:43 17.5 °C 13.8 °C 1021.9 hPa NW 4.2 km/h 4.2 km/h 79 % 0.0 mm
21:48 17.6 °C 13.9 °C 1021.9 hPa NW 3.7 km/h 3.7 km/h 79 % 0.0 mm
21:53 17.6 °C 13.9 °C 1021.9 hPa NNW 3.7 km/h 3.7 km/h 79 % 0.0 mm
21:58 17.5 °C 13.8 °C 1021.9 hPa NW 5.6 km/h 5.6 km/h 79 % 0.0 mm
22:03 17.5 °C 13.8 °C 1021.9 hPa NW 3.7 km/h   79 % 0.0 mm
22:08 17.4 °C 13.7 °C 1021.9 hPa NW 1.9 km/h   79 % 0.0 mm
22:13 17.4 °C 13.7 °C 1021.9 hPa NW 3.7 km/h 3.7 km/h 79 % 0.0 mm
22:18 17.4 °C 13.7 °C 1022.9 hPa NW 3.9 km/h 3.9 km/h 79 % 0.0 mm
22:23 17.3 °C 13.8 °C 1022.9 hPa NW 2.6 km/h   80 % 0.0 mm
22:28 17.3 °C 13.8 °C 1022.9 hPa NW 2.6 km/h 2.6 km/h 80 % 0.0 mm
22:33 17.3 °C 13.8 °C 1022.9 hPa NW 2.3 km/h 2.3 km/h 80 % 0.0 mm
22:38 17.3 °C 13.8 °C 1022.9 hPa NW 1.9 km/h   80 % 0.0 mm
22:43 17.3 °C 13.8 °C 1022.9 hPa NW 3.7 km/h 3.7 km/h 80 % 0.0 mm
22:48 17.3 °C 13.8 °C 1022.9 hPa NW 3.7 km/h 3.7 km/h 80 % 0.0 mm
22:53 17.4 °C 13.9 °C 1022.9 hPa NW 1.9 km/h 2.6 km/h 80 % 0.0 mm
22:58 17.4 °C 14.1 °C 1022.9 hPa Calm     81 % 0.0 mm
23:03 17.4 °C 14.1 °C 1022.9 hPa NW 3.7 km/h   81 % 0.0 mm
23:08 17.4 °C 14.1 °C 1022.9 hPa NW 2.3 km/h 2.3 km/h 81 % 0.0 mm
23:13 17.4 °C 14.1 °C 1022.9 hPa Calm     81 % 0.0 mm
23:18 17.4 °C 14.1 °C 1022.9 hPa Calm     81 % 0.0 mm
23:23 17.4 °C 14.1 °C 1022.9 hPa NW 1.9 km/h 1.9 km/h 81 % 0.0 mm
23:28 17.4 °C 14.1 °C 1022.9 hPa Calm     81 % 0.0 mm
23:33 17.4 °C 14.1 °C 1022.9 hPa NW 1.9 km/h   81 % 0.0 mm
23:38 17.3 °C 14.2 °C 1022.9 hPa Calm     82 % 0.0 mm
23:43 17.3 °C 14.2 °C 1022.9 hPa NW 1.9 km/h 1.9 km/h 82 % 0.0 mm
23:48 17.2 °C 14.1 °C 1022.9 hPa Calm     82 % 0.0 mm
23:53 17.2 °C 14.1 °C 1022.9 hPa NW 1.9 km/h   82 % 0.0 mm
23:58 17.1 °C 14.0 °C 1022.9 hPa Calm     82 % 0.0 mm
Meteo Sesrovires
Elogis d' Weather Underground - 3.5 mb

Guio original per  Jim McMurry - jmcmurry@mwt.net Adaptat per a la plantilla per  Wim van der Kuil - Leuven-Template.eu

Trobareu la nostra informacio del temps tambe a:

Weather Underground

AWEKAS